createdAt,value
2019-03-06T00:02:17.795Z,52.47
2019-03-06T00:04:49.213Z,52.54
2019-03-06T00:07:20.596Z,52.61
2019-03-06T00:09:51.923Z,52.57
2019-03-06T00:12:24.509Z,52.58
2019-03-06T00:14:55.815Z,52.67
2019-03-06T00:17:27.154Z,52.64
2019-03-06T00:19:58.462Z,52.77
2019-03-06T00:22:29.859Z,52.73
2019-03-06T00:25:01.239Z,52.75
2019-03-06T00:27:32.675Z,52.71
2019-03-06T00:30:04.491Z,52.80
2019-03-06T00:32:35.925Z,52.78
2019-03-06T00:35:11.419Z,52.78
2019-03-06T00:37:43.726Z,52.71
2019-03-06T00:40:24.298Z,52.67
2019-03-06T00:42:55.736Z,52.66
2019-03-06T00:45:27.087Z,52.63
2019-03-06T00:47:58.545Z,52.60
2019-03-06T00:50:29.872Z,52.68
2019-03-06T00:53:01.488Z,52.75
2019-03-06T00:55:32.937Z,52.83
2019-03-06T00:58:04.323Z,52.82
2019-03-06T01:00:35.603Z,52.89
2019-03-06T01:03:07.342Z,52.98
2019-03-06T01:05:38.732Z,53.04
2019-03-06T01:08:10.751Z,53.09
2019-03-06T01:10:42.219Z,53.16
2019-03-06T01:13:13.550Z,53.19
2019-03-06T01:15:44.944Z,53.18
2019-03-06T01:18:16.354Z,53.24
2019-03-06T01:20:47.803Z,53.25
2019-03-06T01:23:19.214Z,53.34
2019-03-06T01:25:50.580Z,53.31
2019-03-06T01:28:21.920Z,53.27
2019-03-06T01:30:53.348Z,53.32
2019-03-06T01:33:49.761Z,53.29
2019-03-06T01:36:40.073Z,53.24
2019-03-06T01:39:43.035Z,53.24
2019-03-06T01:42:36.798Z,53.21
2019-03-06T01:45:10.324Z,53.17
2019-03-06T01:47:41.729Z,53.27
2019-03-06T01:50:14.776Z,53.25
2019-03-06T01:52:46.294Z,53.28
2019-03-06T01:55:17.557Z,53.38
2019-03-06T01:57:48.804Z,53.39
2019-03-06T02:00:20.259Z,53.47
2019-03-06T02:02:52.295Z,53.56
2019-03-06T02:05:23.621Z,53.56
2019-03-06T02:07:55.125Z,53.58
2019-03-06T02:10:26.488Z,53.68
2019-03-06T02:12:57.805Z,53.75
2019-03-06T02:15:29.184Z,53.81
2019-03-06T02:18:00.495Z,53.82
2019-03-06T02:20:31.911Z,53.83
2019-03-06T02:23:03.325Z,53.86
2019-03-06T02:25:34.666Z,53.85
2019-03-06T02:28:06.001Z,53.87
2019-03-06T02:30:37.206Z,53.86
2019-03-06T02:33:08.657Z,53.90
2019-03-06T02:35:40.160Z,53.82
2019-03-06T02:38:11.427Z,53.83
2019-03-06T02:40:42.695Z,53.78
2019-03-06T02:43:14.075Z,53.77
2019-03-06T02:45:45.400Z,53.71
2019-03-06T02:48:16.729Z,53.70
2019-03-06T02:50:48.024Z,53.65
2019-03-06T02:53:19.618Z,53.66
2019-03-06T02:55:50.942Z,53.62
2019-03-06T02:58:27.331Z,53.64
2019-03-06T03:01:16.573Z,53.59
2019-03-06T03:04:08.340Z,53.57
2019-03-06T03:06:43.645Z,53.57
2019-03-06T03:09:17.500Z,53.56
2019-03-06T03:11:48.829Z,53.55
2019-03-06T03:14:20.143Z,53.53
2019-03-06T03:16:51.464Z,53.53
2019-03-06T03:19:22.766Z,53.57
2019-03-06T03:21:55.426Z,53.58
2019-03-06T03:24:26.689Z,53.68
2019-03-06T03:26:57.985Z,53.71
2019-03-06T03:29:29.245Z,53.88
2019-03-06T03:32:00.583Z,53.84
2019-03-06T03:34:32.583Z,53.86
2019-03-06T03:37:04.037Z,53.91
2019-03-06T03:39:35.424Z,53.93
2019-03-06T03:42:06.716Z,53.93
2019-03-06T03:44:39.037Z,53.97
2019-03-06T03:47:10.345Z,54.02
2019-03-06T03:49:41.652Z,54.03
2019-03-06T03:52:12.985Z,54.02
2019-03-06T03:54:44.259Z,54.07
2019-03-06T03:57:16.102Z,54.05
2019-03-06T03:59:47.524Z,54.07
2019-03-06T04:02:18.824Z,54.09
2019-03-06T04:04:50.137Z,54.09
2019-03-06T04:07:21.732Z,54.14
2019-03-06T04:09:53.038Z,54.14
2019-03-06T04:12:24.419Z,54.16
2019-03-06T04:14:55.674Z,54.19
2019-03-06T04:17:26.891Z,54.20
2019-03-06T04:19:58.251Z,54.21
2019-03-06T04:22:29.534Z,54.23
2019-03-06T04:25:00.821Z,54.24
2019-03-06T04:27:32.251Z,54.28
2019-03-06T04:30:03.554Z,54.27
2019-03-06T04:32:35.002Z,54.30
2019-03-06T04:35:06.570Z,54.30
2019-03-06T04:37:37.898Z,54.30
2019-03-06T04:40:09.385Z,54.31
2019-03-06T04:42:40.800Z,54.30
2019-03-06T04:45:12.271Z,54.27
2019-03-06T04:47:43.551Z,54.29
2019-03-06T04:50:14.924Z,54.26
2019-03-06T04:52:46.323Z,54.27
2019-03-06T04:55:18.792Z,54.27
2019-03-06T04:57:50.129Z,54.28
2019-03-06T05:00:21.503Z,54.28
2019-03-06T05:02:53.192Z,54.32
2019-03-06T05:05:24.508Z,54.31
2019-03-06T05:07:56.808Z,54.30
2019-03-06T05:10:28.084Z,54.31
2019-03-06T05:12:59.508Z,54.30
2019-03-06T05:15:30.785Z,54.28
2019-03-06T05:18:19.355Z,54.32
2019-03-06T05:20:50.851Z,54.30
2019-03-06T05:23:22.488Z,54.35
2019-03-06T05:25:54.442Z,54.34
2019-03-06T05:28:25.809Z,54.35
2019-03-06T05:30:57.070Z,54.39
2019-03-06T05:33:28.774Z,54.45
2019-03-06T05:36:39.823Z,54.51
2019-03-06T05:39:11.974Z,54.59
2019-03-06T05:41:43.425Z,54.67
2019-03-06T05:44:14.711Z,54.68
2019-03-06T05:46:46.267Z,54.67
2019-03-06T05:49:17.554Z,54.72
2019-03-06T05:51:48.976Z,54.75
2019-03-06T05:54:20.300Z,54.79
2019-03-06T05:56:51.579Z,54.81
2019-03-06T05:59:23.072Z,54.87
2019-03-06T06:01:54.484Z,54.90
2019-03-06T06:04:25.785Z,54.95
2019-03-06T06:06:57.173Z,54.94
2019-03-06T06:09:29.328Z,54.98
2019-03-06T06:12:00.702Z,55.02
2019-03-06T06:14:31.940Z,55.03
2019-03-06T06:17:03.287Z,55.06
2019-03-06T06:19:34.516Z,55.07
2019-03-06T06:22:12.319Z,55.12
2019-03-06T06:24:43.660Z,55.17
2019-03-06T06:27:14.949Z,55.20
2019-03-06T06:29:46.707Z,55.21
2019-03-06T06:32:18.201Z,55.25
2019-03-06T06:34:50.753Z,55.29
2019-03-06T06:37:22.180Z,55.34
2019-03-06T06:39:53.570Z,55.40
2019-03-06T06:42:25.063Z,55.48
2019-03-06T06:44:56.550Z,55.55
2019-03-06T06:47:27.932Z,55.64
2019-03-06T06:49:59.347Z,55.71
2019-03-06T06:53:06.419Z,55.76
2019-03-06T06:56:22.978Z,55.80
2019-03-06T06:59:05.221Z,55.79
2019-03-06T07:02:21.476Z,55.74
2019-03-06T07:05:22.951Z,55.68
2019-03-06T07:08:16.305Z,55.70
2019-03-06T07:11:09.844Z,55.73
2019-03-06T07:13:59.681Z,55.67
2019-03-06T07:17:05.312Z,55.71
2019-03-06T07:19:40.833Z,55.72
2019-03-06T07:22:17.420Z,55.75
2019-03-06T07:25:13.527Z,55.78
2019-03-06T07:28:10.134Z,55.80
2019-03-06T07:31:03.413Z,55.78
2019-03-06T07:34:06.695Z,55.86
2019-03-06T07:37:05.970Z,55.81
2019-03-06T07:39:53.365Z,55.83
2019-03-06T07:42:42.508Z,55.88
2019-03-06T07:45:53.137Z,55.82
2019-03-06T07:48:38.205Z,55.86
2019-03-06T07:51:28.445Z,55.81
2019-03-06T07:54:09.104Z,55.85
2019-03-06T07:56:47.225Z,55.86
2019-03-06T07:59:18.586Z,55.93
2019-03-06T08:01:53.744Z,55.81
2019-03-06T08:04:25.262Z,55.80
2019-03-06T08:07:01.896Z,55.81
2019-03-06T08:09:33.435Z,55.81
2019-03-06T08:12:14.828Z,55.71
2019-03-06T08:15:23.419Z,55.68
2019-03-06T08:18:13.638Z,55.64
2019-03-06T08:21:01.406Z,55.63
2019-03-06T08:24:00.792Z,55.58
2019-03-06T08:26:32.185Z,55.53
2019-03-06T08:29:03.586Z,55.52
2019-03-06T08:31:40.766Z,55.46
2019-03-06T08:34:12.167Z,55.51
2019-03-06T08:36:43.574Z,55.43
2019-03-06T08:39:22.164Z,55.43
2019-03-06T08:41:53.539Z,55.38
2019-03-06T08:44:24.834Z,55.39
2019-03-06T08:47:23.643Z,55.40
2019-03-06T08:50:14.518Z,55.45
2019-03-06T08:53:07.848Z,55.41
2019-03-06T08:56:01.087Z,55.37
2019-03-06T08:58:45.159Z,55.34
2019-03-06T09:01:59.738Z,55.26
2019-03-06T09:04:40.790Z,55.25
2019-03-06T09:07:21.430Z,55.28
2019-03-06T09:10:20.552Z,55.21
2019-03-06T09:13:23.365Z,55.20
2019-03-06T09:16:16.783Z,55.17
2019-03-06T09:19:10.048Z,55.13
2019-03-06T09:22:03.441Z,55.04
2019-03-06T09:24:50.590Z,54.93
2019-03-06T09:27:39.615Z,54.80
2019-03-06T09:30:39.974Z,54.78
2019-03-06T09:33:19.830Z,54.71
2019-03-06T09:36:19.255Z,54.66
2019-03-06T09:39:16.819Z,54.58
2019-03-06T09:42:00.966Z,54.51
2019-03-06T09:44:48.305Z,54.40
2019-03-06T09:47:36.524Z,54.27
2019-03-06T09:50:30.010Z,54.22
2019-03-06T09:53:29.390Z,54.12
2019-03-06T09:56:25.682Z,54.06
2019-03-06T09:59:15.900Z,53.98
2019-03-06T10:02:15.359Z,53.88
2019-03-06T10:05:04.407Z,53.80
2019-03-06T10:07:48.033Z,53.72
2019-03-06T10:10:45.742Z,53.63
2019-03-06T10:13:22.831Z,53.54
2019-03-06T10:15:59.125Z,53.38
2019-03-06T10:18:55.365Z,53.29
2019-03-06T10:21:26.742Z,53.23
2019-03-06T10:23:58.593Z,53.23
2019-03-06T10:26:29.912Z,53.23
2019-03-06T10:29:01.529Z,53.19
2019-03-06T10:31:32.960Z,53.11
2019-03-06T10:34:04.199Z,53.04
2019-03-06T10:36:35.720Z,52.95
2019-03-06T10:39:07.706Z,52.89
2019-03-06T10:41:40.806Z,52.80
2019-03-06T10:44:12.266Z,52.73
2019-03-06T10:46:43.668Z,52.66
2019-03-06T10:49:15.210Z,52.59
2019-03-06T10:51:46.601Z,52.44
2019-03-06T10:54:17.973Z,52.38
2019-03-06T10:56:49.247Z,52.28
2019-03-06T10:59:20.580Z,52.21
2019-03-06T11:01:51.950Z,52.13
2019-03-06T11:04:41.105Z,52.07
2019-03-06T11:07:12.678Z,52.07
2019-03-06T11:09:44.202Z,51.95
2019-03-06T11:12:15.838Z,51.88
2019-03-06T11:14:47.174Z,51.80
2019-03-06T11:17:18.499Z,51.69
2019-03-06T11:19:50.291Z,51.63
2019-03-06T11:22:21.973Z,51.59
2019-03-06T11:24:53.330Z,51.54
2019-03-06T11:27:24.911Z,51.53
2019-03-06T11:29:56.291Z,51.44
2019-03-06T11:32:27.846Z,51.46
2019-03-06T11:34:59.650Z,51.43
2019-03-06T11:37:31.437Z,51.38
2019-03-06T11:40:03.506Z,51.33
2019-03-06T11:42:34.976Z,51.17
2019-03-06T11:45:06.599Z,51.12
2019-03-06T11:47:38.122Z,51.02
2019-03-06T11:50:10.364Z,50.95
2019-03-06T11:52:41.913Z,50.94
2019-03-06T11:55:13.812Z,50.84
2019-03-06T11:57:46.127Z,50.73
2019-03-06T12:00:37.911Z,50.65
2019-03-06T12:03:09.431Z,50.53
2019-03-06T12:05:41.074Z,50.44
2019-03-06T12:08:14.368Z,50.46
2019-03-06T12:10:46.043Z,50.36
2019-03-06T12:13:17.754Z,50.29
2019-03-06T12:15:50.456Z,50.22
2019-03-06T12:18:23.102Z,50.08
2019-03-06T12:20:54.857Z,50.05
2019-03-06T12:23:26.362Z,49.99
2019-03-06T12:25:57.833Z,49.96
2019-03-06T12:28:29.205Z,49.83
2019-03-06T12:31:00.791Z,49.73
2019-03-06T12:33:32.404Z,49.64
2019-03-06T12:36:05.622Z,49.53
2019-03-06T12:38:37.101Z,49.46
2019-03-06T12:41:08.667Z,49.24
2019-03-06T12:43:40.047Z,49.33
2019-03-06T12:46:23.576Z,49.32
2019-03-06T12:49:11.884Z,49.23
2019-03-06T12:51:43.264Z,48.96
2019-03-06T12:54:14.808Z,48.71
2019-03-06T12:56:46.846Z,48.68
2019-03-06T12:59:18.266Z,48.51
2019-03-06T13:01:49.709Z,48.44
2019-03-06T13:04:20.963Z,48.36
2019-03-06T13:06:53.428Z,48.28
2019-03-06T13:09:25.655Z,48.18
2019-03-06T13:11:56.997Z,48.07
2019-03-06T13:14:30.426Z,48.02
2019-03-06T13:17:01.570Z,47.93
2019-03-06T13:19:33.030Z,47.85
2019-03-06T13:22:11.058Z,47.91
2019-03-06T13:24:37.606Z,47.82
2019-03-06T13:27:09.020Z,47.79
2019-03-06T13:29:40.382Z,47.93
2019-03-06T13:32:12.369Z,48.03
2019-03-06T13:34:57.189Z,47.88
2019-03-06T13:37:28.395Z,47.63
2019-03-06T13:39:59.718Z,47.23
2019-03-06T13:42:31.213Z,46.77
2019-03-06T13:45:02.534Z,46.41
2019-03-06T13:47:34.792Z,45.92
2019-03-06T13:50:06.641Z,45.59
2019-03-06T13:52:37.965Z,45.21
2019-03-06T13:55:09.592Z,44.67
2019-03-06T13:57:41.091Z,44.43
2019-03-06T14:00:15.322Z,44.21
2019-03-06T14:02:49.808Z,43.98
2019-03-06T14:05:21.654Z,43.46
2019-03-06T14:07:56.480Z,43.33
2019-03-06T14:10:26.031Z,43.26
2019-03-06T14:12:57.482Z,43.25
2019-03-06T14:15:28.781Z,43.19
2019-03-06T14:18:00.020Z,43.26
2019-03-06T14:20:31.299Z,43.24
2019-03-06T14:23:02.586Z,43.20
2019-03-06T14:25:34.867Z,43.05
2019-03-06T14:28:06.461Z,43.02
2019-03-06T14:30:37.800Z,43.00
2019-03-06T14:33:09.183Z,42.81
2019-03-06T14:35:40.494Z,42.45
2019-03-06T14:38:11.784Z,42.30
2019-03-06T14:40:43.677Z,42.09
2019-03-06T14:43:15.222Z,41.93
2019-03-06T14:45:46.559Z,41.83
2019-03-06T14:48:17.934Z,41.87
2019-03-06T14:50:49.384Z,41.87
2019-03-06T14:53:20.783Z,41.83
2019-03-06T14:55:52.366Z,41.87
2019-03-06T14:58:23.682Z,41.90
2019-03-06T15:00:55.385Z,42.03
2019-03-06T15:03:27.654Z,42.07
2019-03-06T15:05:58.975Z,42.09
2019-03-06T15:08:30.218Z,42.29
2019-03-06T15:11:02.611Z,42.53
2019-03-06T15:13:34.858Z,42.79
2019-03-06T15:16:06.165Z,43.07
2019-03-06T15:18:37.480Z,43.22
2019-03-06T15:21:08.823Z,43.40
2019-03-06T15:23:40.049Z,43.53
2019-03-06T15:26:11.760Z,43.66
2019-03-06T15:28:43.042Z,43.79
2019-03-06T15:31:14.355Z,43.91
2019-03-06T15:33:45.686Z,44.04
2019-03-06T15:36:16.985Z,44.03
2019-03-06T15:38:48.612Z,43.89
2019-03-06T15:41:19.960Z,43.79
2019-03-06T15:43:51.296Z,43.41
2019-03-06T15:46:22.600Z,43.08
2019-03-06T15:48:53.846Z,42.75
2019-03-06T15:51:25.363Z,42.36
2019-03-06T15:53:56.670Z,42.11
2019-03-06T15:56:28.394Z,42.00
2019-03-06T15:58:59.723Z,41.84
2019-03-06T16:01:31.025Z,41.74
2019-03-06T16:04:02.366Z,41.72
2019-03-06T16:06:33.642Z,41.75
2019-03-06T16:09:06.948Z,41.83
2019-03-06T16:11:39.517Z,42.03
2019-03-06T16:14:12.579Z,42.14
2019-03-06T16:16:43.885Z,42.22
2019-03-06T16:19:15.176Z,42.37
2019-03-06T16:21:47.512Z,42.48
2019-03-06T16:24:24.185Z,42.63
2019-03-06T16:26:55.581Z,42.75
2019-03-06T16:29:26.921Z,42.90
2019-03-06T16:31:58.172Z,43.03
2019-03-06T16:34:29.518Z,43.09
2019-03-06T16:37:00.977Z,43.20
2019-03-06T16:39:32.687Z,43.32
2019-03-06T16:42:04.297Z,43.37
2019-03-06T16:44:36.131Z,43.50
2019-03-06T16:47:07.735Z,43.61
2019-03-06T16:49:40.921Z,43.72
2019-03-06T16:52:12.847Z,43.80
2019-03-06T16:54:44.446Z,43.90
2019-03-06T16:57:15.881Z,43.97
2019-03-06T16:59:47.445Z,44.05
2019-03-06T17:02:19.048Z,44.11
2019-03-06T17:04:50.609Z,44.16
2019-03-06T17:07:22.188Z,44.23
2019-03-06T17:09:53.792Z,44.33
2019-03-06T17:12:25.565Z,44.42
2019-03-06T17:14:57.156Z,44.52
2019-03-06T17:17:29.263Z,44.61
2019-03-06T17:20:01.143Z,44.69
2019-03-06T17:22:34.121Z,44.73
2019-03-06T17:25:07.136Z,44.78
2019-03-06T17:27:38.752Z,44.85
2019-03-06T17:30:12.503Z,44.88
2019-03-06T17:33:01.360Z,44.93
2019-03-06T17:35:33.282Z,44.96
2019-03-06T17:38:05.716Z,45.04
2019-03-06T17:40:37.128Z,45.09
2019-03-06T17:43:09.961Z,45.16
2019-03-06T17:45:41.337Z,45.25
2019-03-06T17:48:12.618Z,45.33
2019-03-06T17:50:44.074Z,45.40
2019-03-06T17:53:15.404Z,45.52
2019-03-06T17:55:46.655Z,45.59
2019-03-06T17:58:17.926Z,45.67
2019-03-06T18:00:51.967Z,45.74
2019-03-06T18:03:31.911Z,45.83
2019-03-06T18:06:06.385Z,45.87
2019-03-06T18:08:38.034Z,45.92
2019-03-06T18:11:09.542Z,45.98
2019-03-06T18:13:44.337Z,46.04
2019-03-06T18:16:15.650Z,46.10
2019-03-06T18:18:46.967Z,46.17
2019-03-06T18:21:18.732Z,46.22
2019-03-06T18:23:50.193Z,46.28
2019-03-06T18:26:21.582Z,46.35
2019-03-06T18:28:54.603Z,46.42
2019-03-06T18:31:26.299Z,46.49
2019-03-06T18:33:57.720Z,46.55
2019-03-06T18:36:29.105Z,46.59
2019-03-06T18:39:00.453Z,46.63
2019-03-06T18:41:33.262Z,46.68
2019-03-06T18:44:04.550Z,46.70
2019-03-06T18:46:35.802Z,46.76
2019-03-06T18:49:10.829Z,46.78
2019-03-06T18:51:43.281Z,46.82
2019-03-06T18:54:14.572Z,46.87
2019-03-06T18:56:45.973Z,46.87
2019-03-06T18:59:18.577Z,46.89
2019-03-06T19:01:50.034Z,46.89
2019-03-06T19:04:21.374Z,46.92
2019-03-06T19:06:52.758Z,46.96
2019-03-06T19:09:24.305Z,46.98
2019-03-06T19:11:56.133Z,46.99
2019-03-06T19:14:29.436Z,47.01
2019-03-06T19:17:00.493Z,47.02
2019-03-06T19:19:31.897Z,47.06
2019-03-06T19:22:03.421Z,47.04
2019-03-06T19:24:34.741Z,47.08
2019-03-06T19:27:06.214Z,47.06
2019-03-06T19:29:37.607Z,47.08
2019-03-06T19:32:09.005Z,47.08
2019-03-06T19:34:40.381Z,47.07
2019-03-06T19:37:11.749Z,47.07
2019-03-06T19:39:44.035Z,47.08
2019-03-06T19:42:15.797Z,47.08
2019-03-06T19:44:49.528Z,47.07
2019-03-06T19:47:20.863Z,47.07
2019-03-06T19:49:52.411Z,47.08
2019-03-06T19:52:23.755Z,47.06
2019-03-06T19:54:55.100Z,47.07
2019-03-06T19:57:27.498Z,47.06
2019-03-06T20:00:00.013Z,47.06
2019-03-06T20:02:31.460Z,47.05
2019-03-06T20:05:02.914Z,47.06
2019-03-06T20:07:35.484Z,47.07
2019-03-06T20:10:06.846Z,47.08
2019-03-06T20:12:39.445Z,47.09
2019-03-06T20:15:10.825Z,47.17
2019-03-06T20:17:42.337Z,47.21
2019-03-06T20:20:13.907Z,47.26
2019-03-06T20:22:45.766Z,47.32
2019-03-06T20:25:18.721Z,47.36
2019-03-06T20:27:50.292Z,47.42
2019-03-06T20:30:22.039Z,47.46
2019-03-06T20:32:53.377Z,47.52
2019-03-06T20:35:25.239Z,47.58
2019-03-06T20:37:58.675Z,47.68
2019-03-06T20:40:31.939Z,47.75
2019-03-06T20:43:10.624Z,47.82
2019-03-06T20:45:47.332Z,47.96
2019-03-06T20:48:19.612Z,48.07
2019-03-06T20:50:51.719Z,48.19
2019-03-06T20:53:23.208Z,48.22
2019-03-06T20:55:54.582Z,48.33
2019-03-06T20:58:25.890Z,48.37
2019-03-06T21:00:57.733Z,48.49
2019-03-06T21:03:29.290Z,48.56
2019-03-06T21:06:00.638Z,48.62
2019-03-06T21:08:32.025Z,48.68
2019-03-06T21:11:06.280Z,48.72
2019-03-06T21:13:42.186Z,48.79
2019-03-06T21:16:20.408Z,48.87
2019-03-06T21:18:59.143Z,48.92
2019-03-06T21:21:33.871Z,48.96
2019-03-06T21:24:05.197Z,49.03
2019-03-06T21:26:36.427Z,49.04
2019-03-06T21:29:07.689Z,49.10
2019-03-06T21:31:39.019Z,49.16
2019-03-06T21:34:10.347Z,49.29
2019-03-06T21:36:41.661Z,49.31
2019-03-06T21:39:25.837Z,49.37
2019-03-06T21:41:57.157Z,49.40
2019-03-06T21:44:28.411Z,49.47
2019-03-06T21:46:59.725Z,49.51
2019-03-06T21:49:31.167Z,49.61
2019-03-06T21:52:02.714Z,49.66
2019-03-06T21:54:34.232Z,49.70
2019-03-06T21:57:05.588Z,49.72
2019-03-06T21:59:37.011Z,49.77
2019-03-06T22:02:08.218Z,49.78
2019-03-06T22:04:39.532Z,49.82
2019-03-06T22:07:10.899Z,49.86
2019-03-06T22:09:42.313Z,49.89
2019-03-06T22:12:13.605Z,49.90
2019-03-06T22:14:44.921Z,49.90
2019-03-06T22:17:16.301Z,49.92
2019-03-06T22:19:47.719Z,49.93
2019-03-06T22:22:19.004Z,49.99
2019-03-06T22:24:50.330Z,49.99
2019-03-06T22:27:21.570Z,50.02
2019-03-06T22:29:53.126Z,50.06
2019-03-06T22:32:24.365Z,50.10
2019-03-06T22:34:55.585Z,50.11
2019-03-06T22:37:26.841Z,50.16
2019-03-06T22:39:58.096Z,50.18
2019-03-06T22:42:29.437Z,50.21
2019-03-06T22:45:00.750Z,50.24
2019-03-06T22:47:32.085Z,50.31
2019-03-06T22:50:03.415Z,50.35
2019-03-06T22:52:34.838Z,50.38
2019-03-06T22:55:06.793Z,50.41
2019-03-06T22:57:38.011Z,50.46
2019-03-06T23:00:32.541Z,50.50
2019-03-06T23:03:06.167Z,50.52
2019-03-06T23:05:37.415Z,50.69
2019-03-06T23:08:08.696Z,50.67
2019-03-06T23:10:42.057Z,50.73
2019-03-06T23:13:13.635Z,50.82
2019-03-06T23:15:45.285Z,50.88
2019-03-06T23:18:16.631Z,51.00
2019-03-06T23:20:47.850Z,51.04
2019-03-06T23:23:19.176Z,51.05
2019-03-06T23:25:51.508Z,51.17
2019-03-06T23:28:22.812Z,51.19
2019-03-06T23:30:54.130Z,51.28
2019-03-06T23:33:27.643Z,51.31
2019-03-06T23:35:58.905Z,51.40
2019-03-06T23:38:30.226Z,51.42
2019-03-06T23:41:01.425Z,51.50
2019-03-06T23:43:32.715Z,51.54
2019-03-06T23:46:04.028Z,51.59
2019-03-06T23:48:35.249Z,51.66
2019-03-06T23:51:24.249Z,51.69
2019-03-06T23:53:56.015Z,51.75
2019-03-06T23:56:27.366Z,51.81
2019-03-06T23:58:58.716Z,51.85
